sensor_id;sensor_type;location;lat;lon;timestamp;temperature;humidity
22682;DHT22;11508;50.856;4.380;2023-06-19T00:00:13;19.80;1.00
22682;DHT22;11508;50.856;4.380;2023-06-19T00:02:41;19.60;1.00
22682;DHT22;11508;50.856;4.380;2023-06-19T00:05:07;19.60;1.00
22682;DHT22;11508;50.856;4.380;2023-06-19T00:07:35;19.50;1.00
22682;DHT22;11508;50.856;4.380;2023-06-19T00:10:01;19.50;5.70
22682;DHT22;11508;50.856;4.380;2023-06-19T00:12:27;19.50;11.60
22682;DHT22;11508;50.856;4.380;2023-06-19T00:14:52;19.40;17.50
22682;DHT22;11508;50.856;4.380;2023-06-19T00:17:18;19.40;18.30
22682;DHT22;11508;50.856;4.380;2023-06-19T00:19:44;19.40;23.40
22682;DHT22;11508;50.856;4.380;2023-06-19T00:22:09;19.40;21.50
22682;DHT22;11508;50.856;4.380;2023-06-19T00:24:35;19.40;20.90
22682;DHT22;11508;50.856;4.380;2023-06-19T00:27:01;19.50;20.00
22682;DHT22;11508;50.856;4.380;2023-06-19T00:29:28;19.30;29.50
22682;DHT22;11508;50.856;4.380;2023-06-19T00:31:54;19.30;31.50
22682;DHT22;11508;50.856;4.380;2023-06-19T00:34:20;19.30;31.10
22682;DHT22;11508;50.856;4.380;2023-06-19T00:36:45;19.30;33.60
22682;DHT22;11508;50.856;4.380;2023-06-19T00:39:12;19.40;33.20
22682;DHT22;11508;50.856;4.380;2023-06-19T00:41:38;19.40;31.50
22682;DHT22;11508;50.856;4.380;2023-06-19T00:44:05;19.40;35.00
22682;DHT22;11508;50.856;4.380;2023-06-19T00:46:31;19.30;42.10
22682;DHT22;11508;50.856;4.380;2023-06-19T00:48:57;19.20;51.60
22682;DHT22;11508;50.856;4.380;2023-06-19T00:51:23;19.20;53.30
22682;DHT22;11508;50.856;4.380;2023-06-19T00:53:49;19.20;54.60
22682;DHT22;11508;50.856;4.380;2023-06-19T00:56:15;19.20;57.00
22682;DHT22;11508;50.856;4.380;2023-06-19T00:58:43;19.30;59.30
22682;DHT22;11508;50.856;4.380;2023-06-19T01:01:10;19.20;57.40
22682;DHT22;11508;50.856;4.380;2023-06-19T01:03:36;19.30;62.60
22682;DHT22;11508;50.856;4.380;2023-06-19T01:06:02;19.40;48.60
22682;DHT22;11508;50.856;4.380;2023-06-19T01:08:43;19.40;51.70
22682;DHT22;11508;50.856;4.380;2023-06-19T01:11:13;19.40;57.20
22682;DHT22;11508;50.856;4.380;2023-06-19T01:14:08;19.30;65.50
22682;DHT22;11508;50.856;4.380;2023-06-19T01:16:35;19.20;73.60
22682;DHT22;11508;50.856;4.380;2023-06-19T01:19:01;19.20;74.20
22682;DHT22;11508;50.856;4.380;2023-06-19T01:21:28;19.30;76.30
22682;DHT22;11508;50.856;4.380;2023-06-19T01:23:54;19.30;76.40
22682;DHT22;11508;50.856;4.380;2023-06-19T01:26:21;19.20;83.60
22682;DHT22;11508;50.856;4.380;2023-06-19T01:28:51;19.30;77.90
22682;DHT22;11508;50.856;4.380;2023-06-19T01:31:21;19.30;77.60
22682;DHT22;11508;50.856;4.380;2023-06-19T01:33:50;19.20;88.20
22682;DHT22;11508;50.856;4.380;2023-06-19T01:36:18;19.10;91.50
22682;DHT22;11508;50.856;4.380;2023-06-19T01:38:44;19.10;94.30
22682;DHT22;11508;50.856;4.380;2023-06-19T01:41:11;19.20;92.50
22682;DHT22;11508;50.856;4.380;2023-06-19T01:43:37;19.20;92.60
22682;DHT22;11508;50.856;4.380;2023-06-19T01:46:03;19.20;90.40
22682;DHT22;11508;50.856;4.380;2023-06-19T01:48:29;19.20;91.40
22682;DHT22;11508;50.856;4.380;2023-06-19T01:50:55;19.30;90.90
22682;DHT22;11508;50.856;4.380;2023-06-19T01:53:20;19.30;91.10
22682;DHT22;11508;50.856;4.380;2023-06-19T01:55:46;19.20;95.40
22682;DHT22;11508;50.856;4.380;2023-06-19T01:58:12;19.10;99.90
22682;DHT22;11508;50.856;4.380;2023-06-19T02:00:38;19.10;99.90
22682;DHT22;11508;50.856;4.380;2023-06-19T02:03:04;19.10;99.90
22682;DHT22;11508;50.856;4.380;2023-06-19T02:05:31;19.10;99.90
22682;DHT22;11508;50.856;4.380;2023-06-19T02:07:56;19.20;99.90
22682;DHT22;11508;50.856;4.380;2023-06-19T02:10:22;19.30;99.90
22682;DHT22;11508;50.856;4.380;2023-06-19T02:12:48;19.30;98.00
22682;DHT22;11508;50.856;4.380;2023-06-19T02:15:13;19.30;97.40
22682;DHT22;11508;50.856;4.380;2023-06-19T02:17:39;19.40;94.30
22682;DHT22;11508;50.856;4.380;2023-06-19T02:20:08;19.40;92.50
22682;DHT22;11508;50.856;4.380;2023-06-19T02:22:35;19.40;92.40
22682;DHT22;11508;50.856;4.380;2023-06-19T02:25:00;19.50;92.70
22682;DHT22;11508;50.856;4.380;2023-06-19T02:27:26;19.40;91.90
22682;DHT22;11508;50.856;4.380;2023-06-19T02:29:52;19.40;94.00
22682;DHT22;11508;50.856;4.380;2023-06-19T02:32:17;19.30;97.60
22682;DHT22;11508;50.856;4.380;2023-06-19T02:34:44;19.30;99.20
22682;DHT22;11508;50.856;4.380;2023-06-19T02:37:10;19.30;99.90
22682;DHT22;11508;50.856;4.380;2023-06-19T02:39:35;19.40;99.70
22682;DHT22;11508;50.856;4.380;2023-06-19T02:42:01;19.40;98.10
22682;DHT22;11508;50.856;4.380;2023-06-19T02:44:27;19.40;97.20
22682;DHT22;11508;50.856;4.380;2023-06-19T02:46:52;19.50;97.50
22682;DHT22;11508;50.856;4.380;2023-06-19T02:49:18;19.50;96.70
22682;DHT22;11508;50.856;4.380;2023-06-19T02:51:43;19.40;99.50
22682;DHT22;11508;50.856;4.380;2023-06-19T02:54:09;19.30;99.90
22682;DHT22;11508;50.856;4.380;2023-06-19T02:56:35;19.30;99.90
22682;DHT22;11508;50.856;4.380;2023-06-19T02:59:00;19.20;99.90
22682;DHT22;11508;50.856;4.380;2023-06-19T03:01:26;19.20;99.90
22682;DHT22;11508;50.856;4.380;2023-06-19T03:03:52;19.20;99.90
22682;DHT22;11508;50.856;4.380;2023-06-19T03:06:17;19.20;99.90
22682;DHT22;11508;50.856;4.380;2023-06-19T03:08:43;19.20;99.90
22682;DHT22;11508;50.856;4.380;2023-06-19T03:11:09;19.20;99.90
22682;DHT22;11508;50.856;4.380;2023-06-19T03:13:48;19.30;99.90
22682;DHT22;11508;50.856;4.380;2023-06-19T03:16:15;19.20;99.90
22682;DHT22;11508;50.856;4.380;2023-06-19T03:18:41;19.30;99.90
22682;DHT22;11508;50.856;4.380;2023-06-19T03:21:07;19.30;99.90
22682;DHT22;11508;50.856;4.380;2023-06-19T03:23:33;19.20;99.90
22682;DHT22;11508;50.856;4.380;2023-06-19T03:25:59;19.20;99.90
22682;DHT22;11508;50.856;4.380;2023-06-19T03:28:24;19.20;99.90
22682;DHT22;11508;50.856;4.380;2023-06-19T03:30:50;19.20;99.90
22682;DHT22;11508;50.856;4.380;2023-06-19T03:33:16;19.30;99.90
22682;DHT22;11508;50.856;4.380;2023-06-19T03:35:42;19.20;99.90
22682;DHT22;11508;50.856;4.380;2023-06-19T03:38:08;19.40;98.40
22682;DHT22;11508;50.856;4.380;2023-06-19T03:40:33;19.20;91.80
22682;DHT22;11508;50.856;4.380;2023-06-19T03:42:59;19.00;95.50
22682;DHT22;11508;50.856;4.380;2023-06-19T03:45:25;19.00;90.10
22682;DHT22;11508;50.856;4.380;2023-06-19T03:47:50;19.00;89.10
22682;DHT22;11508;50.856;4.380;2023-06-19T03:50:16;19.00;86.90
22682;DHT22;11508;50.856;4.380;2023-06-19T03:52:42;19.00;81.60
22682;DHT22;11508;50.856;4.380;2023-06-19T03:55:08;19.00;72.30
22682;DHT22;11508;50.856;4.380;2023-06-19T03:57:33;18.90;67.20
22682;DHT22;11508;50.856;4.380;2023-06-19T03:59:59;18.90;58.30
22682;DHT22;11508;50.856;4.380;2023-06-19T04:02:25;18.90;55.40
22682;DHT22;11508;50.856;4.380;2023-06-19T04:04:51;18.80;44.00
22682;DHT22;11508;50.856;4.380;2023-06-19T04:07:17;18.80;36.10
22682;DHT22;11508;50.856;4.380;2023-06-19T04:09:42;18.70;30.00
22682;DHT22;11508;50.856;4.380;2023-06-19T04:12:08;18.70;19.30
22682;DHT22;11508;50.856;4.380;2023-06-19T04:14:34;18.60;24.70
22682;DHT22;11508;50.856;4.380;2023-06-19T04:17:00;18.60;24.70
22682;DHT22;11508;50.856;4.380;2023-06-19T04:19:25;18.70;21.00
22682;DHT22;11508;50.856;4.380;2023-06-19T04:21:51;18.90;5.90
22682;DHT22;11508;50.856;4.380;2023-06-19T04:24:17;18.90;3.30
22682;DHT22;11508;50.856;4.380;2023-06-19T04:26:42;19.00;1.00
22682;DHT22;11508;50.856;4.380;2023-06-19T04:29:08;19.00;1.00
22682;DHT22;11508;50.856;4.380;2023-06-19T04:31:33;19.00;1.00
22682;DHT22;11508;50.856;4.380;2023-06-19T04:34:06;18.90;1.40
22682;DHT22;11508;50.856;4.380;2023-06-19T04:36:32;18.90;4.60
22682;DHT22;11508;50.856;4.380;2023-06-19T04:38:57;18.90;8.40
22682;DHT22;11508;50.856;4.380;2023-06-19T04:41:26;19.00;1.00
22682;DHT22;11508;50.856;4.380;2023-06-19T04:43:52;18.80;7.30
22682;DHT22;11508;50.856;4.380;2023-06-19T04:46:17;18.80;18.20
22682;DHT22;11508;50.856;4.380;2023-06-19T04:48:46;18.90;16.80
22682;DHT22;11508;50.856;4.380;2023-06-19T04:51:17;19.10;12.40
22682;DHT22;11508;50.856;4.380;2023-06-19T04:53:47;19.70;1.00
22682;DHT22;11508;50.856;4.380;2023-06-19T04:56:13;19.90;1.00
22682;DHT22;11508;50.856;4.380;2023-06-19T04:58:39;20.10;1.00
22682;DHT22;11508;50.856;4.380;2023-06-19T05:01:11;20.10;1.00
22682;DHT22;11508;50.856;4.380;2023-06-19T05:03:37;20.10;1.00
22682;DHT22;11508;50.856;4.380;2023-06-19T05:06:03;19.40;1.00
22682;DHT22;11508;50.856;4.380;2023-06-19T05:08:29;19.10;1.00
22682;DHT22;11508;50.856;4.380;2023-06-19T05:10:54;19.20;1.00
22682;DHT22;11508;50.856;4.380;2023-06-19T05:13:24;19.10;1.00
22682;DHT22;11508;50.856;4.380;2023-06-19T05:15:49;19.50;1.00
22682;DHT22;11508;50.856;4.380;2023-06-19T05:18:16;19.70;1.00
22682;DHT22;11508;50.856;4.380;2023-06-19T05:20:42;19.70;1.00
22682;DHT22;11508;50.856;4.380;2023-06-19T05:23:08;19.60;1.00
22682;DHT22;11508;50.856;4.380;2023-06-19T05:25:33;19.30;1.00
22682;DHT22;11508;50.856;4.380;2023-06-19T05:27:59;18.70;1.00
22682;DHT22;11508;50.856;4.380;2023-06-19T05:30:25;18.60;17.70
22682;DHT22;11508;50.856;4.380;2023-06-19T05:32:50;18.90;1.00
22682;DHT22;11508;50.856;4.380;2023-06-19T05:35:16;18.90;1.00
22682;DHT22;11508;50.856;4.380;2023-06-19T05:37:41;18.50;3.70
22682;DHT22;11508;50.856;4.380;2023-06-19T05:40:15;18.60;1.00
22682;DHT22;11508;50.856;4.380;2023-06-19T05:42:41;18.50;1.00
22682;DHT22;11508;50.856;4.380;2023-06-19T05:45:07;18.30;19.90
22682;DHT22;11508;50.856;4.380;2023-06-19T05:47:33;18.20;21.30
22682;DHT22;11508;50.856;4.380;2023-06-19T05:49:59;18.30;20.00
22682;DHT22;11508;50.856;4.380;2023-06-19T05:52:26;18.40;8.00
22682;DHT22;11508;50.856;4.380;2023-06-19T05:54:51;18.50;6.30
22682;DHT22;11508;50.856;4.380;2023-06-19T05:57:20;18.60;1.00
22682;DHT22;11508;50.856;4.380;2023-06-19T05:59:49;18.40;1.00
22682;DHT22;11508;50.856;4.380;2023-06-19T06:02:16;18.40;1.00
22682;DHT22;11508;50.856;4.380;2023-06-19T06:04:43;18.40;1.00
22682;DHT22;11508;50.856;4.380;2023-06-19T06:07:08;18.20;1.00
22682;DHT22;11508;50.856;4.380;2023-06-19T06:09:34;18.20;1.00
22682;DHT22;11508;50.856;4.380;2023-06-19T06:12:00;18.30;1.00
22682;DHT22;11508;50.856;4.380;2023-06-19T06:14:26;18.20;1.00
22682;DHT22;11508;50.856;4.380;2023-06-19T06:16:52;18.20;1.00
22682;DHT22;11508;50.856;4.380;2023-06-19T06:19:20;18.30;1.00
22682;DHT22;11508;50.856;4.380;2023-06-19T06:21:48;18.40;1.00
22682;DHT22;11508;50.856;4.380;2023-06-19T06:24:13;18.40;1.00
22682;DHT22;11508;50.856;4.380;2023-06-19T06:26:39;18.40;1.00
22682;DHT22;11508;50.856;4.380;2023-06-19T06:29:05;18.50;1.00
22682;DHT22;11508;50.856;4.380;2023-06-19T06:31:30;18.40;1.00
22682;DHT22;11508;50.856;4.380;2023-06-19T06:33:56;18.50;1.00
22682;DHT22;11508;50.856;4.380;2023-06-19T06:36:22;18.80;1.00
22682;DHT22;11508;50.856;4.380;2023-06-19T06:38:47;19.10;1.00
22682;DHT22;11508;50.856;4.380;2023-06-19T06:41:13;18.90;1.00
22682;DHT22;11508;50.856;4.380;2023-06-19T06:43:40;18.70;1.00
22682;DHT22;11508;50.856;4.380;2023-06-19T06:46:08;18.60;1.00
22682;DHT22;11508;50.856;4.380;2023-06-19T06:48:34;18.60;1.00
22682;DHT22;11508;50.856;4.380;2023-06-19T06:50:59;18.60;1.00
22682;DHT22;11508;50.856;4.380;2023-06-19T06:53:27;18.80;1.00
22682;DHT22;11508;50.856;4.380;2023-06-19T06:55:55;19.20;99.90
22682;DHT22;11508;50.856;4.380;2023-06-19T06:58:21;19.10;99.90
22682;DHT22;11508;50.856;4.380;2023-06-19T07:00:47;19.00;99.90
22682;DHT22;11508;50.856;4.380;2023-06-19T07:03:13;19.00;99.90
22682;DHT22;11508;50.856;4.380;2023-06-19T07:05:39;18.70;99.90
22682;DHT22;11508;50.856;4.380;2023-06-19T07:08:04;18.60;99.90
22682;DHT22;11508;50.856;4.380;2023-06-19T07:10:31;19.10;99.90
22682;DHT22;11508;50.856;4.380;2023-06-19T07:12:56;20.60;99.90
22682;DHT22;11508;50.856;4.380;2023-06-19T07:15:22;21.80;99.90
22682;DHT22;11508;50.856;4.380;2023-06-19T07:17:48;21.90;1.00
22682;DHT22;11508;50.856;4.380;2023-06-19T07:20:14;21.60;1.00
22682;DHT22;11508;50.856;4.380;2023-06-19T07:22:40;20.30;21.40
22682;DHT22;11508;50.856;4.380;2023-06-19T07:25:07;20.30;1.00
22682;DHT22;11508;50.856;4.380;2023-06-19T07:27:32;20.10;99.90
22682;DHT22;11508;50.856;4.380;2023-06-19T07:29:58;19.80;99.90
22682;DHT22;11508;50.856;4.380;2023-06-19T07:32:24;19.30;99.90
22682;DHT22;11508;50.856;4.380;2023-06-19T07:34:49;19.60;99.90
22682;DHT22;11508;50.856;4.380;2023-06-19T07:37:15;19.70;9.30
22682;DHT22;11508;50.856;4.380;2023-06-19T07:39:47;19.70;25.60
22682;DHT22;11508;50.856;4.380;2023-06-19T07:42:13;19.60;97.20
22682;DHT22;11508;50.856;4.380;2023-06-19T07:44:40;20.30;99.90
22682;DHT22;11508;50.856;4.380;2023-06-19T07:47:06;20.40;99.90
22682;DHT22;11508;50.856;4.380;2023-06-19T07:49:33;20.20;99.90
22682;DHT22;11508;50.856;4.380;2023-06-19T07:51:59;20.30;99.90
22682;DHT22;11508;50.856;4.380;2023-06-19T07:54:25;20.10;99.90
22682;DHT22;11508;50.856;4.380;2023-06-19T07:56:51;20.10;1.00
22682;DHT22;11508;50.856;4.380;2023-06-19T07:59:17;20.10;99.90
22682;DHT22;11508;50.856;4.380;2023-06-19T08:01:43;20.00;1.00
22682;DHT22;11508;50.856;4.380;2023-06-19T08:04:09;20.60;99.90
22682;DHT22;11508;50.856;4.380;2023-06-19T08:06:35;21.00;1.00
22682;DHT22;11508;50.856;4.380;2023-06-19T08:09:01;21.90;99.90
22682;DHT22;11508;50.856;4.380;2023-06-19T08:11:27;21.00;85.70
22682;DHT22;11508;50.856;4.380;2023-06-19T08:13:53;21.80;99.90
22682;DHT22;11508;50.856;4.380;2023-06-19T08:16:19;21.60;1.00
22682;DHT22;11508;50.856;4.380;2023-06-19T08:18:45;21.60;1.00
22682;DHT22;11508;50.856;4.380;2023-06-19T08:21:11;22.70;49.40
22682;DHT22;11508;50.856;4.380;2023-06-19T08:23:37;22.70;1.00
22682;DHT22;11508;50.856;4.380;2023-06-19T08:26:09;23.40;99.90
22682;DHT22;11508;50.856;4.380;2023-06-19T08:28:34;23.90;99.90
22682;DHT22;11508;50.856;4.380;2023-06-19T08:31:00;21.90;1.00
22682;DHT22;11508;50.856;4.380;2023-06-19T08:33:26;21.30;99.90
22682;DHT22;11508;50.856;4.380;2023-06-19T08:35:52;22.10;97.90
22682;DHT22;11508;50.856;4.380;2023-06-19T08:38:18;21.90;1.00
22682;DHT22;11508;50.856;4.380;2023-06-19T08:40:44;22.20;1.00
22682;DHT22;11508;50.856;4.380;2023-06-19T08:43:10;23.50;1.00
22682;DHT22;11508;50.856;4.380;2023-06-19T08:45:36;22.90;1.00
22682;DHT22;11508;50.856;4.380;2023-06-19T08:48:03;22.90;99.90
22682;DHT22;11508;50.856;4.380;2023-06-19T08:50:30;23.10;99.90
22682;DHT22;11508;50.856;4.380;2023-06-19T08:52:56;23.50;99.90
22682;DHT22;11508;50.856;4.380;2023-06-19T08:55:22;24.60;99.90
22682;DHT22;11508;50.856;4.380;2023-06-19T08:57:49;24.80;16.70
22682;DHT22;11508;50.856;4.380;2023-06-19T09:00:29;25.00;1.00
22682;DHT22;11508;50.856;4.380;2023-06-19T09:03:08;25.20;99.90
22682;DHT22;11508;50.856;4.380;2023-06-19T09:05:36;25.90;99.90
22682;DHT22;11508;50.856;4.380;2023-06-19T09:08:13;27.20;99.90
22682;DHT22;11508;50.856;4.380;2023-06-19T09:10:41;28.30;54.10
22682;DHT22;11508;50.856;4.380;2023-06-19T09:13:06;27.00;1.00
22682;DHT22;11508;50.856;4.380;2023-06-19T09:15:35;25.90;7.80
22682;DHT22;11508;50.856;4.380;2023-06-19T09:18:08;26.20;38.00
22682;DHT22;11508;50.856;4.380;2023-06-19T09:20:38;25.80;50.10
22682;DHT22;11508;50.856;4.380;2023-06-19T09:23:10;25.70;53.10
22682;DHT22;11508;50.856;4.380;2023-06-19T09:25:50;25.60;91.40
22682;DHT22;11508;50.856;4.380;2023-06-19T09:28:20;24.80;95.60
22682;DHT22;11508;50.856;4.380;2023-06-19T09:30:59;23.20;99.90
22682;DHT22;11508;50.856;4.380;2023-06-19T09:33:27;22.90;99.90
22682;DHT22;11508;50.856;4.380;2023-06-19T09:35:54;23.20;99.90
22682;DHT22;11508;50.856;4.380;2023-06-19T09:38:26;23.60;99.90
22682;DHT22;11508;50.856;4.380;2023-06-19T09:40:53;23.70;99.90
22682;DHT22;11508;50.856;4.380;2023-06-19T09:43:39;24.20;1.00
22682;DHT22;11508;50.856;4.380;2023-06-19T09:46:06;23.40;15.70
22682;DHT22;11508;50.856;4.380;2023-06-19T09:48:34;23.40;37.60
22682;DHT22;11508;50.856;4.380;2023-06-19T09:51:21;23.10;99.90
22682;DHT22;11508;50.856;4.380;2023-06-19T09:53:49;22.60;99.90
22682;DHT22;11508;50.856;4.380;2023-06-19T09:56:16;23.50;99.90
22682;DHT22;11508;50.856;4.380;2023-06-19T09:58:47;24.10;1.00
22682;DHT22;11508;50.856;4.380;2023-06-19T10:01:15;23.00;1.00
22682;DHT22;11508;50.856;4.380;2023-06-19T10:03:44;23.30;99.90
22682;DHT22;11508;50.856;4.380;2023-06-19T10:06:14;25.00;1.00
22682;DHT22;11508;50.856;4.380;2023-06-19T10:08:42;24.70;99.90
22682;DHT22;11508;50.856;4.380;2023-06-19T10:11:09;24.20;99.90
22682;DHT22;11508;50.856;4.380;2023-06-19T10:13:38;24.50;99.90
22682;DHT22;11508;50.856;4.380;2023-06-19T10:16:05;25.10;99.90
22682;DHT22;11508;50.856;4.380;2023-06-19T10:18:45;25.20;99.90
22682;DHT22;11508;50.856;4.380;2023-06-19T10:21:19;26.70;99.90
22682;DHT22;11508;50.856;4.380;2023-06-19T10:23:57;26.70;89.10
22682;DHT22;11508;50.856;4.380;2023-06-19T10:26:33;26.20;61.60
22682;DHT22;11508;50.856;4.380;2023-06-19T10:29:00;26.00;98.90
22682;DHT22;11508;50.856;4.380;2023-06-19T10:31:26;26.10;68.70
22682;DHT22;11508;50.856;4.380;2023-06-19T10:33:54;26.10;58.20
22682;DHT22;11508;50.856;4.380;2023-06-19T10:36:23;27.10;27.30
22682;DHT22;11508;50.856;4.380;2023-06-19T10:38:51;27.20;1.00
22682;DHT22;11508;50.856;4.380;2023-06-19T10:41:18;26.70;1.00
22682;DHT22;11508;50.856;4.380;2023-06-19T10:43:56;25.80;1.00
22682;DHT22;11508;50.856;4.380;2023-06-19T10:46:23;27.80;1.00
22682;DHT22;11508;50.856;4.380;2023-06-19T10:48:50;28.50;1.00
22682;DHT22;11508;50.856;4.380;2023-06-19T10:51:19;27.00;1.00
22682;DHT22;11508;50.856;4.380;2023-06-19T10:53:45;25.30;1.00
22682;DHT22;11508;50.856;4.380;2023-06-19T10:56:14;25.30;1.00
22682;DHT22;11508;50.856;4.380;2023-06-19T10:58:39;26.30;1.00
22682;DHT22;11508;50.856;4.380;2023-06-19T11:01:05;27.90;1.00
22682;DHT22;11508;50.856;4.380;2023-06-19T11:03:32;28.80;1.00
22682;DHT22;11508;50.856;4.380;2023-06-19T11:05:57;28.20;1.00
22682;DHT22;11508;50.856;4.380;2023-06-19T11:08:23;27.90;1.00
22682;DHT22;11508;50.856;4.380;2023-06-19T11:10:50;27.40;1.00
22682;DHT22;11508;50.856;4.380;2023-06-19T11:13:19;27.80;1.00
22682;DHT22;11508;50.856;4.380;2023-06-19T11:15:47;26.80;1.00
22682;DHT22;11508;50.856;4.380;2023-06-19T11:18:16;27.00;1.00
22682;DHT22;11508;50.856;4.380;2023-06-19T11:20:52;27.50;1.00
22682;DHT22;11508;50.856;4.380;2023-06-19T11:23:29;26.90;1.00
22682;DHT22;11508;50.856;4.380;2023-06-19T11:26:04;26.50;1.00
22682;DHT22;11508;50.856;4.380;2023-06-19T11:28:30;26.50;99.90
22682;DHT22;11508;50.856;4.380;2023-06-19T11:31:03;27.10;99.90
22682;DHT22;11508;50.856;4.380;2023-06-19T11:33:29;27.10;99.90
22682;DHT22;11508;50.856;4.380;2023-06-19T11:36:00;27.30;99.90
22682;DHT22;11508;50.856;4.380;2023-06-19T11:38:26;29.00;99.90
22682;DHT22;11508;50.856;4.380;2023-06-19T11:40:54;30.90;99.90
22682;DHT22;11508;50.856;4.380;2023-06-19T11:43:28;30.40;99.90
22682;DHT22;11508;50.856;4.380;2023-06-19T11:46:03;29.20;99.90
22682;DHT22;11508;50.856;4.380;2023-06-19T11:48:29;28.80;99.90
22682;DHT22;11508;50.856;4.380;2023-06-19T11:50:55;29.30;99.90
22682;DHT22;11508;50.856;4.380;2023-06-19T11:53:22;30.10;99.90
22682;DHT22;11508;50.856;4.380;2023-06-19T11:55:48;29.00;99.90
22682;DHT22;11508;50.856;4.380;2023-06-19T11:58:14;27.70;99.90
22682;DHT22;11508;50.856;4.380;2023-06-19T12:00:45;29.20;99.90
22682;DHT22;11508;50.856;4.380;2023-06-19T12:03:10;30.30;99.90
22682;DHT22;11508;50.856;4.380;2023-06-19T12:05:37;29.50;99.90
22682;DHT22;11508;50.856;4.380;2023-06-19T12:08:04;28.50;99.90
22682;DHT22;11508;50.856;4.380;2023-06-19T12:10:31;28.30;99.90
22682;DHT22;11508;50.856;4.380;2023-06-19T12:12:56;28.30;99.90
22682;DHT22;11508;50.856;4.380;2023-06-19T12:15:23;28.10;99.90
22682;DHT22;11508;50.856;4.380;2023-06-19T12:17:51;28.30;99.90
22682;DHT22;11508;50.856;4.380;2023-06-19T12:20:18;29.30;99.90
22682;DHT22;11508;50.856;4.380;2023-06-19T12:22:44;28.90;99.90
22682;DHT22;11508;50.856;4.380;2023-06-19T12:25:10;29.10;99.90
22682;DHT22;11508;50.856;4.380;2023-06-19T12:27:39;29.50;99.90
22682;DHT22;11508;50.856;4.380;2023-06-19T12:30:07;29.10;99.90
22682;DHT22;11508;50.856;4.380;2023-06-19T12:32:33;28.80;99.90
22682;DHT22;11508;50.856;4.380;2023-06-19T12:34:59;28.80;99.90
22682;DHT22;11508;50.856;4.380;2023-06-19T12:37:25;28.40;99.90
22682;DHT22;11508;50.856;4.380;2023-06-19T12:39:51;28.50;99.90
22682;DHT22;11508;50.856;4.380;2023-06-19T12:42:17;28.50;99.90
22682;DHT22;11508;50.856;4.380;2023-06-19T12:44:43;28.70;99.90
22682;DHT22;11508;50.856;4.380;2023-06-19T12:47:12;28.70;99.90
22682;DHT22;11508;50.856;4.380;2023-06-19T12:49:37;28.70;99.90
22682;DHT22;11508;50.856;4.380;2023-06-19T12:52:03;28.50;99.90
22682;DHT22;11508;50.856;4.380;2023-06-19T12:54:29;28.10;99.90
22682;DHT22;11508;50.856;4.380;2023-06-19T12:56:55;27.40;99.90
22682;DHT22;11508;50.856;4.380;2023-06-19T12:59:20;27.90;99.90
22682;DHT22;11508;50.856;4.380;2023-06-19T13:01:47;27.90;99.90
22682;DHT22;11508;50.856;4.380;2023-06-19T13:04:13;27.40;99.90
22682;DHT22;11508;50.856;4.380;2023-06-19T13:06:40;27.60;99.90
22682;DHT22;11508;50.856;4.380;2023-06-19T13:09:06;28.60;99.90
22682;DHT22;11508;50.856;4.380;2023-06-19T13:11:33;28.40;99.90
22682;DHT22;11508;50.856;4.380;2023-06-19T13:14:01;28.50;99.90
22682;DHT22;11508;50.856;4.380;2023-06-19T13:16:27;28.00;99.90
22682;DHT22;11508;50.856;4.380;2023-06-19T13:18:52;28.50;99.90
22682;DHT22;11508;50.856;4.380;2023-06-19T13:21:18;28.50;99.90
22682;DHT22;11508;50.856;4.380;2023-06-19T13:23:44;28.10;99.90
22682;DHT22;11508;50.856;4.380;2023-06-19T13:26:10;28.20;99.90
22682;DHT22;11508;50.856;4.380;2023-06-19T13:28:36;27.20;99.90
22682;DHT22;11508;50.856;4.380;2023-06-19T13:31:02;26.90;99.90
22682;DHT22;11508;50.856;4.380;2023-06-19T13:33:28;27.30;99.90
22682;DHT22;11508;50.856;4.380;2023-06-19T13:35:53;26.80;99.90
22682;DHT22;11508;50.856;4.380;2023-06-19T13:38:19;26.50;99.90
22682;DHT22;11508;50.856;4.380;2023-06-19T13:40:45;26.60;99.90
22682;DHT22;11508;50.856;4.380;2023-06-19T13:43:11;26.20;99.90
22682;DHT22;11508;50.856;4.380;2023-06-19T13:45:36;26.20;99.90
22682;DHT22;11508;50.856;4.380;2023-06-19T13:48:07;26.60;99.90
22682;DHT22;11508;50.856;4.380;2023-06-19T13:50:33;26.60;99.90
22682;DHT22;11508;50.856;4.380;2023-06-19T13:53:00;26.70;99.90
22682;DHT22;11508;50.856;4.380;2023-06-19T13:55:26;26.20;99.90
22682;DHT22;11508;50.856;4.380;2023-06-19T13:57:51;26.00;99.90
22682;DHT22;11508;50.856;4.380;2023-06-19T14:00:18;26.30;99.90
22682;DHT22;11508;50.856;4.380;2023-06-19T14:02:44;26.80;99.90
22682;DHT22;11508;50.856;4.380;2023-06-19T14:05:11;27.40;99.90
22682;DHT22;11508;50.856;4.380;2023-06-19T14:07:37;27.10;99.90
22682;DHT22;11508;50.856;4.380;2023-06-19T14:10:04;27.40;99.90
22682;DHT22;11508;50.856;4.380;2023-06-19T14:12:30;27.60;99.90
22682;DHT22;11508;50.856;4.380;2023-06-19T14:14:56;27.20;99.90
22682;DHT22;11508;50.856;4.380;2023-06-19T14:17:22;26.70;99.90
22682;DHT22;11508;50.856;4.380;2023-06-19T14:19:49;26.60;99.90
22682;DHT22;11508;50.856;4.380;2023-06-19T14:22:14;26.80;99.90
22682;DHT22;11508;50.856;4.380;2023-06-19T14:24:40;26.60;99.90
22682;DHT22;11508;50.856;4.380;2023-06-19T14:27:06;26.70;99.90
22682;DHT22;11508;50.856;4.380;2023-06-19T14:29:32;26.70;99.90
22682;DHT22;11508;50.856;4.380;2023-06-19T14:31:57;26.80;99.90
22682;DHT22;11508;50.856;4.380;2023-06-19T14:34:23;27.00;99.90
22682;DHT22;11508;50.856;4.380;2023-06-19T14:36:48;27.10;99.90
22682;DHT22;11508;50.856;4.380;2023-06-19T14:39:14;27.50;99.90
22682;DHT22;11508;50.856;4.380;2023-06-19T14:41:40;27.80;99.90
22682;DHT22;11508;50.856;4.380;2023-06-19T14:44:06;27.40;99.90
22682;DHT22;11508;50.856;4.380;2023-06-19T14:46:32;27.30;99.90
22682;DHT22;11508;50.856;4.380;2023-06-19T14:48:58;27.70;99.90
22682;DHT22;11508;50.856;4.380;2023-06-19T14:51:27;27.60;99.90
22682;DHT22;11508;50.856;4.380;2023-06-19T14:53:52;26.90;99.90
22682;DHT22;11508;50.856;4.380;2023-06-19T14:56:18;26.40;99.90
22682;DHT22;11508;50.856;4.380;2023-06-19T14:58:44;26.40;99.90
22682;DHT22;11508;50.856;4.380;2023-06-19T15:01:09;26.60;99.90
22682;DHT22;11508;50.856;4.380;2023-06-19T15:03:36;26.80;99.90
22682;DHT22;11508;50.856;4.380;2023-06-19T15:06:03;27.20;99.90
22682;DHT22;11508;50.856;4.380;2023-06-19T15:08:29;27.00;99.90
22682;DHT22;11508;50.856;4.380;2023-06-19T15:10:56;27.10;99.90
22682;DHT22;11508;50.856;4.380;2023-06-19T15:13:23;26.90;99.90
22682;DHT22;11508;50.856;4.380;2023-06-19T15:15:48;26.80;99.90
22682;DHT22;11508;50.856;4.380;2023-06-19T15:18:16;26.90;99.90
22682;DHT22;11508;50.856;4.380;2023-06-19T15:20:41;26.90;99.90
22682;DHT22;11508;50.856;4.380;2023-06-19T15:23:07;27.30;99.90
22682;DHT22;11508;50.856;4.380;2023-06-19T15:25:34;27.00;99.90
22682;DHT22;11508;50.856;4.380;2023-06-19T15:28:00;26.80;99.90
22682;DHT22;11508;50.856;4.380;2023-06-19T15:30:26;26.70;99.90
22682;DHT22;11508;50.856;4.380;2023-06-19T15:32:52;26.70;99.90